sensor_id;sensor_type;location;lat;lon;timestamp;P1;durP1;ratioP1;P2;durP2;ratioP2
31768;SDS011;18342;52.132;21.048;2022-11-04T00:01:15;24.23;;;11.10;;
31768;SDS011;18342;52.132;21.048;2022-11-04T00:03:41;19.67;;;10.90;;
31768;SDS011;18342;52.132;21.048;2022-11-04T00:06:07;21.17;;;10.47;;
31768;SDS011;18342;52.132;21.048;2022-11-04T00:08:34;20.43;;;10.70;;
31768;SDS011;18342;52.132;21.048;2022-11-04T00:11:00;29.30;;;11.57;;
31768;SDS011;18342;52.132;21.048;2022-11-04T00:13:45;22.27;;;11.17;;
31768;SDS011;18342;52.132;21.048;2022-11-04T00:16:11;22.90;;;10.67;;
31768;SDS011;18342;52.132;21.048;2022-11-04T00:18:56;21.10;;;10.03;;
31768;SDS011;18342;52.132;21.048;2022-11-04T00:21:24;22.43;;;10.23;;
31768;SDS011;18342;52.132;21.048;2022-11-04T00:24:09;23.40;;;10.37;;
31768;SDS011;18342;52.132;21.048;2022-11-04T00:26:54;25.20;;;10.60;;
31768;SDS011;18342;52.132;21.048;2022-11-04T00:29:39;21.67;;;10.67;;
31768;SDS011;18342;52.132;21.048;2022-11-04T00:32:05;25.70;;;10.83;;
31768;SDS011;18342;52.132;21.048;2022-11-04T00:34:49;21.93;;;9.87;;
31768;SDS011;18342;52.132;21.048;2022-11-04T00:37:15;20.13;;;10.40;;
31768;SDS011;18342;52.132;21.048;2022-11-04T00:39:41;23.90;;;10.60;;
31768;SDS011;18342;52.132;21.048;2022-11-04T00:42:07;20.20;;;10.87;;
31768;SDS011;18342;52.132;21.048;2022-11-04T00:44:33;21.87;;;10.43;;
31768;SDS011;18342;52.132;21.048;2022-11-04T00:46:59;23.03;;;10.50;;
31768;SDS011;18342;52.132;21.048;2022-11-04T00:49:25;19.33;;;11.30;;
31768;SDS011;18342;52.132;21.048;2022-11-04T00:51:51;18.90;;;10.60;;
31768;SDS011;18342;52.132;21.048;2022-11-04T00:54:18;23.30;;;12.30;;
31768;SDS011;18342;52.132;21.048;2022-11-04T00:56:44;21.30;;;10.43;;
31768;SDS011;18342;52.132;21.048;2022-11-04T00:59:10;22.77;;;11.07;;
31768;SDS011;18342;52.132;21.048;2022-11-04T01:01:36;23.90;;;10.77;;
31768;SDS011;18342;52.132;21.048;2022-11-04T01:04:02;20.17;;;9.70;;
31768;SDS011;18342;52.132;21.048;2022-11-04T01:06:28;20.33;;;10.80;;
31768;SDS011;18342;52.132;21.048;2022-11-04T01:08:58;20.97;;;10.40;;
31768;SDS011;18342;52.132;21.048;2022-11-04T01:11:24;21.77;;;10.27;;
31768;SDS011;18342;52.132;21.048;2022-11-04T01:13:52;22.37;;;10.90;;
31768;SDS011;18342;52.132;21.048;2022-11-04T01:16:18;23.87;;;11.07;;
31768;SDS011;18342;52.132;21.048;2022-11-04T01:18:44;20.90;;;10.27;;
31768;SDS011;18342;52.132;21.048;2022-11-04T01:21:11;20.60;;;11.17;;
31768;SDS011;18342;52.132;21.048;2022-11-04T01:23:37;23.73;;;10.37;;
31768;SDS011;18342;52.132;21.048;2022-11-04T01:26:07;25.27;;;11.13;;
31768;SDS011;18342;52.132;21.048;2022-11-04T01:28:34;24.07;;;10.53;;
31768;SDS011;18342;52.132;21.048;2022-11-04T01:31:09;20.23;;;10.87;;
31768;SDS011;18342;52.132;21.048;2022-11-04T01:33:35;25.47;;;11.07;;
31768;SDS011;18342;52.132;21.048;2022-11-04T01:36:02;19.67;;;10.30;;
31768;SDS011;18342;52.132;21.048;2022-11-04T01:38:28;19.70;;;10.90;;
31768;SDS011;18342;52.132;21.048;2022-11-04T01:40:54;23.13;;;10.43;;
31768;SDS011;18342;52.132;21.048;2022-11-04T01:43:21;23.10;;;11.23;;
31768;SDS011;18342;52.132;21.048;2022-11-04T01:45:48;24.13;;;10.93;;
31768;SDS011;18342;52.132;21.048;2022-11-04T01:48:20;21.20;;;10.53;;
31768;SDS011;18342;52.132;21.048;2022-11-04T01:50:47;20.60;;;11.13;;
31768;SDS011;18342;52.132;21.048;2022-11-04T01:53:15;21.77;;;10.97;;
31768;SDS011;18342;52.132;21.048;2022-11-04T01:55:44;25.80;;;11.17;;
31768;SDS011;18342;52.132;21.048;2022-11-04T01:58:12;21.67;;;11.23;;
31768;SDS011;18342;52.132;21.048;2022-11-04T02:00:40;22.07;;;10.03;;
31768;SDS011;18342;52.132;21.048;2022-11-04T02:03:08;24.70;;;11.37;;
31768;SDS011;18342;52.132;21.048;2022-11-04T02:05:35;22.40;;;11.33;;
31768;SDS011;18342;52.132;21.048;2022-11-04T02:08:02;22.83;;;11.03;;
31768;SDS011;18342;52.132;21.048;2022-11-04T02:10:29;22.87;;;10.93;;
31768;SDS011;18342;52.132;21.048;2022-11-04T02:12:56;22.87;;;11.30;;
31768;SDS011;18342;52.132;21.048;2022-11-04T02:15:26;23.43;;;11.20;;
31768;SDS011;18342;52.132;21.048;2022-11-04T02:18:11;19.40;;;10.63;;
31768;SDS011;18342;52.132;21.048;2022-11-04T02:23:31;25.33;;;11.30;;
31768;SDS011;18342;52.132;21.048;2022-11-04T02:29:22;17.70;;;10.40;;
31768;SDS011;18342;52.132;21.048;2022-11-04T02:34:08;20.50;;;10.17;;
31768;SDS011;18342;52.132;21.048;2022-11-04T02:39:46;18.90;;;9.10;;
31768;SDS011;18342;52.132;21.048;2022-11-04T02:44:43;20.33;;;9.80;;
31768;SDS011;18342;52.132;21.048;2022-11-04T02:47:12;22.13;;;9.97;;
31768;SDS011;18342;52.132;21.048;2022-11-04T02:49:43;17.97;;;9.03;;
31768;SDS011;18342;52.132;21.048;2022-11-04T02:52:11;20.57;;;9.80;;
31768;SDS011;18342;52.132;21.048;2022-11-04T02:54:49;20.60;;;9.73;;
31768;SDS011;18342;52.132;21.048;2022-11-04T02:57:25;16.33;;;9.23;;
31768;SDS011;18342;52.132;21.048;2022-11-04T03:00:13;22.07;;;10.20;;
31768;SDS011;18342;52.132;21.048;2022-11-04T03:02:39;17.33;;;8.97;;
31768;SDS011;18342;52.132;21.048;2022-11-04T03:05:06;23.07;;;10.47;;
31768;SDS011;18342;52.132;21.048;2022-11-04T03:07:35;17.23;;;8.93;;
31768;SDS011;18342;52.132;21.048;2022-11-04T03:10:10;19.13;;;9.03;;
31768;SDS011;18342;52.132;21.048;2022-11-04T03:12:43;16.57;;;9.93;;
31768;SDS011;18342;52.132;21.048;2022-11-04T03:15:13;16.13;;;9.20;;
31768;SDS011;18342;52.132;21.048;2022-11-04T03:20:26;17.53;;;9.37;;
31768;SDS011;18342;52.132;21.048;2022-11-04T03:22:53;22.10;;;9.77;;
31768;SDS011;18342;52.132;21.048;2022-11-04T03:25:36;19.47;;;9.20;;
31768;SDS011;18342;52.132;21.048;2022-11-04T03:28:09;19.37;;;9.10;;
31768;SDS011;18342;52.132;21.048;2022-11-04T03:30:38;16.40;;;9.00;;
31768;SDS011;18342;52.132;21.048;2022-11-04T03:35:42;22.50;;;9.70;;
31768;SDS011;18342;52.132;21.048;2022-11-04T03:38:08;18.20;;;9.37;;
31768;SDS011;18342;52.132;21.048;2022-11-04T03:40:34;21.73;;;9.17;;
31768;SDS011;18342;52.132;21.048;2022-11-04T03:43:06;22.70;;;9.73;;
31768;SDS011;18342;52.132;21.048;2022-11-04T03:45:34;22.00;;;9.40;;
31768;SDS011;18342;52.132;21.048;2022-11-04T03:48:00;22.83;;;9.77;;
31768;SDS011;18342;52.132;21.048;2022-11-04T03:50:27;20.53;;;9.83;;
31768;SDS011;18342;52.132;21.048;2022-11-04T03:52:54;15.20;;;9.40;;
31768;SDS011;18342;52.132;21.048;2022-11-04T03:55:29;17.37;;;8.30;;
31768;SDS011;18342;52.132;21.048;2022-11-04T03:58:00;17.83;;;8.73;;
31768;SDS011;18342;52.132;21.048;2022-11-04T04:00:28;17.67;;;8.73;;
31768;SDS011;18342;52.132;21.048;2022-11-04T04:03:04;16.47;;;8.97;;
31768;SDS011;18342;52.132;21.048;2022-11-04T04:10:35;20.00;;;8.43;;
31768;SDS011;18342;52.132;21.048;2022-11-04T04:13:52;19.83;;;10.97;;
31768;SDS011;18342;52.132;21.048;2022-11-04T04:15:55;18.60;;;9.13;;
31768;SDS011;18342;52.132;21.048;2022-11-04T04:18:25;18.93;;;9.27;;
31768;SDS011;18342;52.132;21.048;2022-11-04T04:20:55;23.77;;;8.53;;
31768;SDS011;18342;52.132;21.048;2022-11-04T04:23:23;20.70;;;9.20;;
31768;SDS011;18342;52.132;21.048;2022-11-04T04:26:09;20.47;;;9.23;;
31768;SDS011;18342;52.132;21.048;2022-11-04T04:29:05;15.87;;;9.00;;
31768;SDS011;18342;52.132;21.048;2022-11-04T04:31:32;19.63;;;9.00;;
31768;SDS011;18342;52.132;21.048;2022-11-04T04:34:22;20.60;;;9.63;;
31768;SDS011;18342;52.132;21.048;2022-11-04T04:36:59;18.10;;;8.80;;
31768;SDS011;18342;52.132;21.048;2022-11-04T04:39:27;19.30;;;10.07;;
31768;SDS011;18342;52.132;21.048;2022-11-04T04:42:14;21.70;;;9.27;;
31768;SDS011;18342;52.132;21.048;2022-11-04T04:45:00;23.47;;;9.37;;
31768;SDS011;18342;52.132;21.048;2022-11-04T04:47:35;19.23;;;9.13;;
31768;SDS011;18342;52.132;21.048;2022-11-04T04:50:02;21.50;;;9.27;;
31768;SDS011;18342;52.132;21.048;2022-11-04T04:52:30;20.73;;;10.17;;
31768;SDS011;18342;52.132;21.048;2022-11-04T04:54:57;17.63;;;9.03;;
31768;SDS011;18342;52.132;21.048;2022-11-04T04:57:23;21.47;;;9.57;;
31768;SDS011;18342;52.132;21.048;2022-11-04T04:59:49;18.70;;;9.90;;
31768;SDS011;18342;52.132;21.048;2022-11-04T05:02:15;21.07;;;9.63;;
31768;SDS011;18342;52.132;21.048;2022-11-04T05:04:41;16.33;;;9.20;;
31768;SDS011;18342;52.132;21.048;2022-11-04T05:07:07;17.90;;;9.87;;
31768;SDS011;18342;52.132;21.048;2022-11-04T05:09:34;21.13;;;10.07;;
31768;SDS011;18342;52.132;21.048;2022-11-04T05:12:00;20.77;;;11.87;;
31768;SDS011;18342;52.132;21.048;2022-11-04T05:14:26;20.03;;;10.60;;
31768;SDS011;18342;52.132;21.048;2022-11-04T05:16:52;16.87;;;9.70;;
31768;SDS011;18342;52.132;21.048;2022-11-04T05:19:18;18.17;;;10.20;;
31768;SDS011;18342;52.132;21.048;2022-11-04T05:21:44;16.33;;;9.47;;
31768;SDS011;18342;52.132;21.048;2022-11-04T05:24:10;16.10;;;9.30;;
31768;SDS011;18342;52.132;21.048;2022-11-04T05:26:36;19.90;;;10.03;;
31768;SDS011;18342;52.132;21.048;2022-11-04T05:29:02;22.17;;;10.10;;
31768;SDS011;18342;52.132;21.048;2022-11-04T05:31:29;19.57;;;9.97;;
31768;SDS011;18342;52.132;21.048;2022-11-04T05:33:55;16.87;;;9.70;;
31768;SDS011;18342;52.132;21.048;2022-11-04T05:36:23;17.40;;;9.57;;
31768;SDS011;18342;52.132;21.048;2022-11-04T05:38:50;16.63;;;9.77;;
31768;SDS011;18342;52.132;21.048;2022-11-04T05:41:16;21.60;;;9.63;;
31768;SDS011;18342;52.132;21.048;2022-11-04T05:43:55;20.33;;;9.53;;
31768;SDS011;18342;52.132;21.048;2022-11-04T05:46:22;19.57;;;8.80;;
31768;SDS011;18342;52.132;21.048;2022-11-04T05:48:48;19.33;;;9.17;;
31768;SDS011;18342;52.132;21.048;2022-11-04T05:51:15;15.13;;;8.87;;
31768;SDS011;18342;52.132;21.048;2022-11-04T05:53:41;18.57;;;9.30;;
31768;SDS011;18342;52.132;21.048;2022-11-04T05:56:07;18.20;;;9.37;;
31768;SDS011;18342;52.132;21.048;2022-11-04T05:58:33;17.37;;;8.77;;
31768;SDS011;18342;52.132;21.048;2022-11-04T06:03:38;20.93;;;7.90;;
31768;SDS011;18342;52.132;21.048;2022-11-04T06:06:04;15.70;;;8.70;;
31768;SDS011;18342;52.132;21.048;2022-11-04T06:08:30;20.03;;;7.63;;
31768;SDS011;18342;52.132;21.048;2022-11-04T06:10:56;21.40;;;8.33;;
31768;SDS011;18342;52.132;21.048;2022-11-04T06:13:22;22.43;;;8.40;;
31768;SDS011;18342;52.132;21.048;2022-11-04T06:15:48;15.10;;;8.13;;
31768;SDS011;18342;52.132;21.048;2022-11-04T06:18:14;15.23;;;7.07;;
31768;SDS011;18342;52.132;21.048;2022-11-04T06:20:40;13.83;;;8.00;;
31768;SDS011;18342;52.132;21.048;2022-11-04T06:23:06;16.80;;;8.47;;
31768;SDS011;18342;52.132;21.048;2022-11-04T06:25:32;14.57;;;7.73;;
31768;SDS011;18342;52.132;21.048;2022-11-04T06:27:58;15.00;;;7.43;;
31768;SDS011;18342;52.132;21.048;2022-11-04T06:30:25;16.57;;;8.47;;
31768;SDS011;18342;52.132;21.048;2022-11-04T06:32:51;15.37;;;7.90;;
31768;SDS011;18342;52.132;21.048;2022-11-04T06:35:17;14.50;;;8.03;;
31768;SDS011;18342;52.132;21.048;2022-11-04T06:37:43;14.27;;;7.13;;
31768;SDS011;18342;52.132;21.048;2022-11-04T06:40:09;13.40;;;6.87;;
31768;SDS011;18342;52.132;21.048;2022-11-04T06:42:35;15.83;;;8.47;;
31768;SDS011;18342;52.132;21.048;2022-11-04T06:45:01;11.03;;;7.20;;
31768;SDS011;18342;52.132;21.048;2022-11-04T06:47:27;19.23;;;8.27;;
31768;SDS011;18342;52.132;21.048;2022-11-04T06:49:53;19.07;;;8.27;;
31768;SDS011;18342;52.132;21.048;2022-11-04T06:52:19;18.47;;;8.13;;
31768;SDS011;18342;52.132;21.048;2022-11-04T06:54:45;16.63;;;8.77;;
31768;SDS011;18342;52.132;21.048;2022-11-04T06:57:12;19.10;;;8.50;;
31768;SDS011;18342;52.132;21.048;2022-11-04T06:59:38;16.90;;;8.93;;
31768;SDS011;18342;52.132;21.048;2022-11-04T07:02:04;16.33;;;8.20;;
31768;SDS011;18342;52.132;21.048;2022-11-04T07:04:30;13.97;;;7.77;;
31768;SDS011;18342;52.132;21.048;2022-11-04T07:06:56;18.53;;;8.33;;
31768;SDS011;18342;52.132;21.048;2022-11-04T07:09:22;17.60;;;8.20;;
31768;SDS011;18342;52.132;21.048;2022-11-04T07:11:48;15.80;;;8.53;;
31768;SDS011;18342;52.132;21.048;2022-11-04T07:14:14;14.47;;;7.77;;
31768;SDS011;18342;52.132;21.048;2022-11-04T07:16:40;18.87;;;8.07;;
31768;SDS011;18342;52.132;21.048;2022-11-04T07:19:06;15.50;;;7.47;;
31768;SDS011;18342;52.132;21.048;2022-11-04T07:21:32;13.30;;;7.67;;
31768;SDS011;18342;52.132;21.048;2022-11-04T07:23:59;15.40;;;7.40;;
31768;SDS011;18342;52.132;21.048;2022-11-04T07:26:25;18.70;;;8.77;;
31768;SDS011;18342;52.132;21.048;2022-11-04T07:28:51;19.40;;;8.93;;
31768;SDS011;18342;52.132;21.048;2022-11-04T07:31:17;16.93;;;8.67;;
31768;SDS011;18342;52.132;21.048;2022-11-04T07:33:43;16.57;;;8.43;;
31768;SDS011;18342;52.132;21.048;2022-11-04T07:36:13;16.13;;;7.97;;
31768;SDS011;18342;52.132;21.048;2022-11-04T07:38:41;18.67;;;8.97;;
31768;SDS011;18342;52.132;21.048;2022-11-04T07:41:07;17.97;;;8.33;;
31768;SDS011;18342;52.132;21.048;2022-11-04T07:43:33;16.20;;;8.40;;
31768;SDS011;18342;52.132;21.048;2022-11-04T07:46:03;16.83;;;8.87;;
31768;SDS011;18342;52.132;21.048;2022-11-04T07:48:29;17.87;;;9.07;;
31768;SDS011;18342;52.132;21.048;2022-11-04T07:50:56;15.40;;;9.00;;
31768;SDS011;18342;52.132;21.048;2022-11-04T07:53:23;18.67;;;8.83;;
31768;SDS011;18342;52.132;21.048;2022-11-04T07:55:49;15.67;;;8.20;;
31768;SDS011;18342;52.132;21.048;2022-11-04T07:58:16;15.90;;;7.97;;
31768;SDS011;18342;52.132;21.048;2022-11-04T08:00:42;16.67;;;9.10;;
31768;SDS011;18342;52.132;21.048;2022-11-04T08:03:08;14.07;;;8.23;;
31768;SDS011;18342;52.132;21.048;2022-11-04T08:05:34;14.37;;;8.83;;
31768;SDS011;18342;52.132;21.048;2022-11-04T08:08:00;15.17;;;9.03;;
31768;SDS011;18342;52.132;21.048;2022-11-04T08:10:26;16.60;;;8.40;;
31768;SDS011;18342;52.132;21.048;2022-11-04T08:12:53;14.67;;;8.77;;
31768;SDS011;18342;52.132;21.048;2022-11-04T08:15:19;16.17;;;9.10;;
31768;SDS011;18342;52.132;21.048;2022-11-04T08:17:45;14.93;;;9.13;;
31768;SDS011;18342;52.132;21.048;2022-11-04T08:20:11;19.87;;;9.40;;
31768;SDS011;18342;52.132;21.048;2022-11-04T08:22:37;19.43;;;9.13;;
31768;SDS011;18342;52.132;21.048;2022-11-04T08:25:03;15.73;;;8.53;;
31768;SDS011;18342;52.132;21.048;2022-11-04T08:27:30;18.50;;;9.13;;
31768;SDS011;18342;52.132;21.048;2022-11-04T08:29:56;15.00;;;8.73;;
31768;SDS011;18342;52.132;21.048;2022-11-04T08:32:23;15.93;;;8.90;;
31768;SDS011;18342;52.132;21.048;2022-11-04T08:34:49;22.23;;;9.67;;
31768;SDS011;18342;52.132;21.048;2022-11-04T08:37:15;20.83;;;9.47;;
31768;SDS011;18342;52.132;21.048;2022-11-04T08:39:41;18.57;;;10.23;;
31768;SDS011;18342;52.132;21.048;2022-11-04T08:42:07;16.17;;;9.33;;
31768;SDS011;18342;52.132;21.048;2022-11-04T08:44:34;17.53;;;9.83;;
31768;SDS011;18342;52.132;21.048;2022-11-04T08:47:01;16.30;;;9.30;;
31768;SDS011;18342;52.132;21.048;2022-11-04T08:49:27;18.63;;;9.43;;
31768;SDS011;18342;52.132;21.048;2022-11-04T08:51:53;22.90;;;10.00;;
31768;SDS011;18342;52.132;21.048;2022-11-04T08:54:24;17.63;;;9.73;;
31768;SDS011;18342;52.132;21.048;2022-11-04T08:56:50;16.70;;;9.20;;
31768;SDS011;18342;52.132;21.048;2022-11-04T08:59:17;17.47;;;9.60;;
31768;SDS011;18342;52.132;21.048;2022-11-04T09:01:43;20.07;;;9.47;;
31768;SDS011;18342;52.132;21.048;2022-11-04T09:04:10;17.10;;;9.37;;
31768;SDS011;18342;52.132;21.048;2022-11-04T09:06:39;18.43;;;9.43;;
31768;SDS011;18342;52.132;21.048;2022-11-04T09:09:06;16.30;;;9.80;;
31768;SDS011;18342;52.132;21.048;2022-11-04T09:11:33;19.17;;;9.73;;
31768;SDS011;18342;52.132;21.048;2022-11-04T09:14:01;21.07;;;9.17;;
31768;SDS011;18342;52.132;21.048;2022-11-04T09:16:28;18.83;;;9.60;;
31768;SDS011;18342;52.132;21.048;2022-11-04T09:18:54;18.77;;;10.88;;
31768;SDS011;18342;52.132;21.048;2022-11-04T09:21:21;21.13;;;10.03;;
31768;SDS011;18342;52.132;21.048;2022-11-04T09:23:47;19.87;;;9.23;;
31768;SDS011;18342;52.132;21.048;2022-11-04T09:26:13;18.47;;;9.67;;
31768;SDS011;18342;52.132;21.048;2022-11-04T09:28:40;15.73;;;9.13;;
31768;SDS011;18342;52.132;21.048;2022-11-04T09:31:08;17.60;;;8.93;;
31768;SDS011;18342;52.132;21.048;2022-11-04T09:33:34;16.73;;;8.57;;
31768;SDS011;18342;52.132;21.048;2022-11-04T09:36:00;18.33;;;9.07;;
31768;SDS011;18342;52.132;21.048;2022-11-04T09:38:26;16.93;;;9.13;;
31768;SDS011;18342;52.132;21.048;2022-11-04T09:40:52;20.30;;;8.97;;
31768;SDS011;18342;52.132;21.048;2022-11-04T09:45:50;19.20;;;8.37;;
31768;SDS011;18342;52.132;21.048;2022-11-04T09:50:53;18.60;;;9.47;;
31768;SDS011;18342;52.132;21.048;2022-11-04T09:53:21;14.73;;;9.20;;
31768;SDS011;18342;52.132;21.048;2022-11-04T09:55:53;16.90;;;9.13;;
31768;SDS011;18342;52.132;21.048;2022-11-04T09:58:20;16.90;;;8.90;;
31768;SDS011;18342;52.132;21.048;2022-11-04T10:01:05;14.67;;;8.63;;
31768;SDS011;18342;52.132;21.048;2022-11-04T10:03:40;14.70;;;9.27;;
31768;SDS011;18342;52.132;21.048;2022-11-04T10:14:02;19.63;;;9.83;;
31768;SDS011;18342;52.132;21.048;2022-11-04T10:19:21;16.40;;;8.80;;
31768;SDS011;18342;52.132;21.048;2022-11-04T10:22:00;17.20;;;8.37;;
31768;SDS011;18342;52.132;21.048;2022-11-04T10:26:57;18.53;;;9.67;;
31768;SDS011;18342;52.132;21.048;2022-11-04T10:31:50;14.37;;;8.20;;
31768;SDS011;18342;52.132;21.048;2022-11-04T10:34:22;19.17;;;8.40;;
31768;SDS011;18342;52.132;21.048;2022-11-04T10:36:51;16.63;;;8.37;;
31768;SDS011;18342;52.132;21.048;2022-11-04T10:39:22;15.80;;;8.37;;
31768;SDS011;18342;52.132;21.048;2022-11-04T10:41:50;18.40;;;8.40;;
31768;SDS011;18342;52.132;21.048;2022-11-04T10:44:21;14.53;;;7.77;;
31768;SDS011;18342;52.132;21.048;2022-11-04T10:49:37;18.83;;;8.70;;
31768;SDS011;18342;52.132;21.048;2022-11-04T10:52:06;15.90;;;8.97;;
31768;SDS011;18342;52.132;21.048;2022-11-04T10:54:35;19.57;;;8.17;;
31768;SDS011;18342;52.132;21.048;2022-11-04T10:57:03;16.83;;;8.23;;
31768;SDS011;18342;52.132;21.048;2022-11-04T10:59:45;18.87;;;8.87;;
31768;SDS011;18342;52.132;21.048;2022-11-04T11:02:12;15.30;;;8.07;;
31768;SDS011;18342;52.132;21.048;2022-11-04T11:04:38;15.13;;;7.97;;
31768;SDS011;18342;52.132;21.048;2022-11-04T11:07:06;15.67;;;7.60;;
31768;SDS011;18342;52.132;21.048;2022-11-04T11:14:37;14.47;;;8.33;;
31768;SDS011;18342;52.132;21.048;2022-11-04T11:25:11;14.13;;;7.90;;
31768;SDS011;18342;52.132;21.048;2022-11-04T11:27:38;15.03;;;8.30;;
31768;SDS011;18342;52.132;21.048;2022-11-04T11:30:05;18.47;;;8.10;;
31768;SDS011;18342;52.132;21.048;2022-11-04T11:32:32;14.33;;;7.90;;
31768;SDS011;18342;52.132;21.048;2022-11-04T11:34:59;16.23;;;7.87;;
31768;SDS011;18342;52.132;21.048;2022-11-04T11:37:26;15.30;;;7.80;;
31768;SDS011;18342;52.132;21.048;2022-11-04T11:39:54;16.43;;;8.40;;
31768;SDS011;18342;52.132;21.048;2022-11-04T11:42:20;12.07;;;7.87;;
31768;SDS011;18342;52.132;21.048;2022-11-04T11:44:47;12.40;;;7.80;;
31768;SDS011;18342;52.132;21.048;2022-11-04T11:49:46;15.37;;;7.87;;
31768;SDS011;18342;52.132;21.048;2022-11-04T11:54:57;22.50;;;8.43;;
31768;SDS011;18342;52.132;21.048;2022-11-04T12:00:09;13.13;;;8.03;;
31768;SDS011;18342;52.132;21.048;2022-11-04T12:05:10;15.83;;;8.67;;
31768;SDS011;18342;52.132;21.048;2022-11-04T12:10:08;17.53;;;8.13;;
31768;SDS011;18342;52.132;21.048;2022-11-04T12:12:58;15.37;;;8.30;;
31768;SDS011;18342;52.132;21.048;2022-11-04T12:21:13;16.10;;;8.40;;
31768;SDS011;18342;52.132;21.048;2022-11-04T12:23:54;18.77;;;8.10;;
31768;SDS011;18342;52.132;21.048;2022-11-04T12:34:08;20.53;;;8.27;;
31768;SDS011;18342;52.132;21.048;2022-11-04T12:57:13;13.40;;;7.83;;
31768;SDS011;18342;52.132;21.048;2022-11-04T12:59:49;16.00;;;7.83;;
31768;SDS011;18342;52.132;21.048;2022-11-04T13:02:27;13.63;;;7.70;;
31768;SDS011;18342;52.132;21.048;2022-11-04T13:07:42;14.13;;;8.37;;
31768;SDS011;18342;52.132;21.048;2022-11-04T13:10:15;13.93;;;7.67;;
31768;SDS011;18342;52.132;21.048;2022-11-04T13:12:43;11.57;;;7.43;;
31768;SDS011;18342;52.132;21.048;2022-11-04T13:15:16;10.53;;;7.07;;
31768;SDS011;18342;52.132;21.048;2022-11-04T13:17:43;13.73;;;6.80;;
31768;SDS011;18342;52.132;21.048;2022-11-04T13:22:43;15.50;;;7.57;;
31768;SDS011;18342;52.132;21.048;2022-11-04T13:27:55;13.70;;;7.83;;
31768;SDS011;18342;52.132;21.048;2022-11-04T13:32:56;14.40;;;7.50;;
31768;SDS011;18342;52.132;21.048;2022-11-04T13:37:58;12.37;;;6.93;;
31768;SDS011;18342;52.132;21.048;2022-11-04T13:45:57;15.27;;;7.90;;
31768;SDS011;18342;52.132;21.048;2022-11-04T13:48:27;14.13;;;7.90;;
31768;SDS011;18342;52.132;21.048;2022-11-04T13:56:08;14.80;;;7.47;;
31768;SDS011;18342;52.132;21.048;2022-11-04T13:58:36;15.63;;;7.23;;
31768;SDS011;18342;52.132;21.048;2022-11-04T14:03:39;15.93;;;7.80;;
31768;SDS011;18342;52.132;21.048;2022-11-04T14:06:06;14.77;;;7.67;;
31768;SDS011;18342;52.132;21.048;2022-11-04T14:08:33;12.43;;;7.17;;
31768;SDS011;18342;52.132;21.048;2022-11-04T14:11:03;13.23;;;7.90;;
31768;SDS011;18342;52.132;21.048;2022-11-04T14:18:41;14.90;;;7.63;;
31768;SDS011;18342;52.132;21.048;2022-11-04T14:21:11;14.47;;;7.57;;
31768;SDS011;18342;52.132;21.048;2022-11-04T14:23:37;16.43;;;7.07;;
31768;SDS011;18342;52.132;21.048;2022-11-04T14:26:11;12.20;;;7.90;;
31768;SDS011;18342;52.132;21.048;2022-11-04T14:28:37;13.07;;;7.37;;
31768;SDS011;18342;52.132;21.048;2022-11-04T14:31:06;14.13;;;7.40;;
31768;SDS011;18342;52.132;21.048;2022-11-04T14:33:50;14.37;;;7.77;;
31768;SDS011;18342;52.132;21.048;2022-11-04T14:44:13;16.37;;;7.93;;
31768;SDS011;18342;52.132;21.048;2022-11-04T14:46:45;16.53;;;8.03;;
31768;SDS011;18342;52.132;21.048;2022-11-04T14:51:57;18.77;;;9.17;;
31768;SDS011;18342;52.132;21.048;2022-11-04T14:54:24;19.87;;;8.23;;
31768;SDS011;18342;52.132;21.048;2022-11-04T14:56:51;18.60;;;8.23;;
31768;SDS011;18342;52.132;21.048;2022-11-04T14:59:22;17.83;;;8.80;;
31768;SDS011;18342;52.132;21.048;2022-11-04T15:01:48;20.40;;;8.60;;
31768;SDS011;18342;52.132;21.048;2022-11-04T15:04:25;15.30;;;9.00;;
31768;SDS011;18342;52.132;21.048;2022-11-04T15:06:54;15.97;;;7.90;;
31768;SDS011;18342;52.132;21.048;2022-11-04T15:09:24;13.97;;;7.97;;
31768;SDS011;18342;52.132;21.048;2022-11-04T15:11:51;16.57;;;8.50;;
31768;SDS011;18342;52.132;21.048;2022-11-04T15:14:41;19.17;;;8.77;;
31768;SDS011;18342;52.132;21.048;2022-11-04T15:17:09;19.57;;;9.40;;
31768;SDS011;18342;52.132;21.048;2022-11-04T15:19:40;17.33;;;9.20;;
31768;SDS011;18342;52.132;21.048;2022-11-04T15:22:07;17.90;;;9.30;;
31768;SDS011;18342;52.132;21.048;2022-11-04T15:24:33;15.90;;;9.67;;
31768;SDS011;18342;52.132;21.048;2022-11-04T15:27:03;17.23;;;9.13;;
31768;SDS011;18342;52.132;21.048;2022-11-04T15:29:30;16.80;;;9.53;;
31768;SDS011;18342;52.132;21.048;2022-11-04T15:31:59;15.30;;;9.50;;
31768;SDS011;18342;52.132;21.048;2022-11-04T15:34:26;16.97;;;9.57;;
31768;SDS011;18342;52.132;21.048;2022-11-04T15:36:56;17.23;;;9.00;;
31768;SDS011;18342;52.132;21.048;2022-11-04T15:39:30;16.90;;;9.43;;
31768;SDS011;18342;52.132;21.048;2022-11-04T15:41:58;16.47;;;9.67;;
31768;SDS011;18342;52.132;21.048;2022-11-04T15:44:44;18.47;;;9.30;;
31768;SDS011;18342;52.132;21.048;2022-11-04T15:49:44;22.37;;;9.40;;
31768;SDS011;18342;52.132;21.048;2022-11-04T15:52:11;23.60;;;9.60;;
31768;SDS011;18342;52.132;21.048;2022-11-04T15:54:43;21.50;;;9.37;;
31768;SDS011;18342;52.132;21.048;2022-11-04T15:57:52;15.63;;;9.53;;
31768;SDS011;18342;52.132;21.048;2022-11-04T16:02:32;19.97;;;11.13;;
31768;SDS011;18342;52.132;21.048;2022-11-04T16:07:47;22.07;;;10.27;;
31768;SDS011;18342;52.132;21.048;2022-11-04T16:10:30;21.00;;;11.13;;
31768;SDS011;18342;52.132;21.048;2022-11-04T16:12:57;26.83;;;10.87;;
31768;SDS011;18342;52.132;21.048;2022-11-04T16:20:53;23.40;;;11.17;;
31768;SDS011;18342;52.132;21.048;2022-11-04T16:23:21;20.70;;;11.00;;
31768;SDS011;18342;52.132;21.048;2022-11-04T16:26:22;20.73;;;10.67;;
31768;SDS011;18342;52.132;21.048;2022-11-04T16:28:41;22.47;;;10.93;;
31768;SDS011;18342;52.132;21.048;2022-11-04T16:31:08;20.53;;;10.50;;
31768;SDS011;18342;52.132;21.048;2022-11-04T16:33:48;20.87;;;11.37;;
31768;SDS011;18342;52.132;21.048;2022-11-04T16:36:14;22.23;;;11.10;;
31768;SDS011;18342;52.132;21.048;2022-11-04T16:39:08;21.70;;;10.43;;
31768;SDS011;18342;52.132;21.048;2022-11-04T16:41:37;20.13;;;11.00;;
31768;SDS011;18342;52.132;21.048;2022-11-04T16:44:04;25.87;;;11.60;;
31768;SDS011;18342;52.132;21.048;2022-11-04T16:46:31;23.87;;;11.33;;
31768;SDS011;18342;52.132;21.048;2022-11-04T16:48:58;20.53;;;11.30;;
31768;SDS011;18342;52.132;21.048;2022-11-04T16:51:24;28.77;;;11.67;;
31768;SDS011;18342;52.132;21.048;2022-11-04T16:53:51;21.63;;;11.03;;
31768;SDS011;18342;52.132;21.048;2022-11-04T16:56:17;19.53;;;11.70;;
31768;SDS011;18342;52.132;21.048;2022-11-04T16:58:44;17.77;;;10.90;;
31768;SDS011;18342;52.132;21.048;2022-11-04T17:01:11;24.43;;;13.17;;
31768;SDS011;18342;52.132;21.048;2022-11-04T17:03:37;21.37;;;12.27;;
31768;SDS011;18342;52.132;21.048;2022-11-04T17:06:03;25.13;;;12.93;;
31768;SDS011;18342;52.132;21.048;2022-11-04T17:08:29;29.03;;;12.10;;
31768;SDS011;18342;52.132;21.048;2022-11-04T17:10:56;21.37;;;11.87;;
31768;SDS011;18342;52.132;21.048;2022-11-04T17:13:22;20.03;;;11.90;;
31768;SDS011;18342;52.132;21.048;2022-11-04T17:15:48;26.60;;;12.93;;